Terminal Aerodrome Forecast
Issued by NWS Omaha/Valley, NE

Home | Current Version | Previous Version | Graphics & Text | Print | Product List | Glossary Off
Versions: 1 2 3 4 5 6 7 8 9 10 11 12 13 14 15 16 17 18 19 20 21 22 23 24 25 26 27 28 29 30 31 32 33 34 35 36 37 38 39 40

000
FTUS43 KOAX 271024 AAB
TAFOFK
TAF AMD
KOFK 271024Z 2710/2806 31010KT P6SM SCT025 SCT110
      TEMPO 2711/2713 BKN025
     FM271300 31008KT P6SM SKC
     FM272300 VRB04KT P6SM SKC=

USA.gov is the U.S. government's official web portal to all federal, state and local government web resources and services.